Time;durP1;ratioP1;P1;durP2;ratioP2;P2;SDS_P1;SDS_P2;PMS_P1;PMS_P2;Temp;Humidity;BMP_temperature;BMP_pressure;BME280_temperature;BME280_humidity;BME280_pressure;Samples;Min_cycle;Max_cycle;Signal;HPM_P1;HPM_P2
2023/07/12 00:01:56;;;;;;;0.00;0.00;;;;;;;20.10;100.00;95944.38;5053004;28;20282;-77
2023/07/12 00:04:42;;;;;;;0.00;0.00;;;;;;;20.14;100.00;95956.16;5052982;28;20040;-78
2023/07/12 00:07:30;;;;;;;0.05;0.05;;;;;;;20.12;100.00;95963.84;5067395;28;20123;-78
2023/07/12 00:10:25;;;;;;;0.00;0.00;;;;;;;20.10;100.00;95966.09;5066368;28;20036;-77
2023/07/12 00:13:11;;;;;;;0.00;0.00;;;;;;;19.99;100.00;95959.38;5068416;28;20036;-78
2023/07/12 00:15:57;;;;;;;0.10;0.10;;;;;;;19.89;100.00;95944.22;5053946;28;20048;-79
2023/07/12 00:18:43;;;;;;;0.00;0.00;;;;;;;19.75;100.00;95938.16;5052435;28;20040;-78
2023/07/12 00:21:30;;;;;;;0.00;0.00;;;;;;;19.65;100.00;95941.97;5070513;28;20089;-79
2023/07/12 00:24:16;;;;;;;0.00;0.00;;;;;;;19.58;100.00;95938.94;5068561;28;20238;-79
2023/07/12 00:27:02;;;;;;;0.00;0.00;;;;;;;19.49;100.00;95930.78;5066136;28;20067;-79
2023/07/12 00:29:48;;;;;;;0.00;0.00;;;;;;;19.36;100.00;95930.91;5065286;28;20036;-79
2023/07/12 00:32:34;;;;;;;0.00;0.00;;;;;;;19.32;100.00;95924.53;5052744;28;20040;-80
2023/07/12 00:35:25;;;;;;;0.00;0.00;;;;;;;19.32;100.00;95913.69;5067157;28;20055;-80
2023/07/12 00:38:23;;;;;;;0.00;0.00;;;;;;;19.29;100.00;95919.72;5068793;28;20748;-79
2023/07/12 00:41:27;;;;;;;0.00;0.00;;;;;;;19.15;100.00;95912.53;5048818;28;20052;-79
2023/07/12 00:44:21;;;;;;;0.00;0.00;;;;;;;19.13;100.00;95905.81;5069355;28;20040;-79
2023/07/12 00:47:11;;;;;;;0.00;0.00;;;;;;;19.15;100.00;95911.75;5053070;28;20036;-79
2023/07/12 00:49:57;;;;;;;0.00;0.00;;;;;;;19.18;100.00;95920.03;5052345;28;20040;-78
2023/07/12 00:52:44;;;;;;;0.00;0.00;;;;;;;19.20;100.00;95930.56;5055226;28;20331;-79
2023/07/12 00:55:56;;;;;;;0.00;0.00;;;;;;;19.15;100.00;95944.28;5070010;28;20036;-79
2023/07/12 00:58:49;;;;;;;0.00;0.00;;;;;;;19.21;100.00;95946.50;5053237;28;20211;-79
2023/07/12 01:01:37;;;;;;;0.00;0.00;;;;;;;19.19;100.00;95950.66;5051204;28;20051;-79
2023/07/12 01:04:29;;;;;;;0.00;0.00;;;;;;;19.29;100.00;95946.84;5041533;28;20043;-79
2023/07/12 01:07:17;;;;;;;0.00;0.00;;;;;;;19.32;100.00;95951.66;5052881;28;20704;-79
2023/07/12 01:10:04;;;;;;;0.00;0.00;;;;;;;19.39;100.00;95954.69;5067085;28;20464;-79
2023/07/12 01:12:50;;;;;;;0.00;0.00;;;;;;;19.32;100.00;95943.53;5054498;28;20044;-78
2023/07/12 01:15:36;;;;;;;0.00;0.00;;;;;;;19.48;100.00;95939.22;5054095;28;20324;-78
2023/07/12 01:18:22;;;;;;;0.00;0.00;;;;;;;19.52;100.00;95923.91;5071855;28;20482;-79
2023/07/12 01:21:08;;;;;;;0.00;0.00;;;;;;;19.52;100.00;95939.38;5046973;28;20153;-78
2023/07/12 01:23:55;;;;;;;0.00;0.00;;;;;;;19.49;100.00;95941.63;5069464;28;20550;-78
2023/07/12 01:26:44;;;;;;;0.00;0.00;;;;;;;19.51;100.00;95926.94;5075478;28;20418;-79
2023/07/12 01:29:30;;;;;;;0.00;0.00;;;;;;;19.56;100.00;95941.16;5064140;28;20097;-78
2023/07/12 01:32:16;;;;;;;0.00;0.00;;;;;;;19.70;100.00;95947.25;5077045;28;20059;-79
2023/07/12 01:35:04;;;;;;;0.00;0.00;;;;;;;19.86;100.00;95944.88;5056882;28;20767;-79
2023/07/12 01:37:50;;;;;;;0.00;0.00;;;;;;;19.87;100.00;95956.53;5057362;28;20556;-78
2023/07/12 01:40:36;;;;;;;0.00;0.00;;;;;;;19.97;100.00;95956.19;5058328;28;20144;-77
2023/07/12 01:43:23;;;;;;;0.00;0.00;;;;;;;19.89;100.00;95948.84;5038817;28;20567;-78
2023/07/12 01:46:09;;;;;;;0.00;0.00;;;;;;;19.92;100.00;95965.31;5058899;28;20374;-78
2023/07/12 01:48:56;;;;;;;0.10;0.10;;;;;;;20.04;100.00;95964.66;5070878;28;20032;-80
2023/07/12 01:51:44;;;;;;;0.00;0.00;;;;;;;20.18;100.00;95976.16;5056305;28;20044;-78
2023/07/12 01:54:33;;;;;;;0.05;0.05;;;;;;;20.17;100.00;95966.41;5055617;28;20043;-78
2023/07/12 01:57:19;;;;;;;0.00;0.00;;;;;;;20.40;100.00;95955.34;5037099;28;20143;-78
2023/07/12 02:00:06;;;;;;;0.00;0.00;;;;;;;20.34;100.00;95957.44;5069723;28;20040;-78
2023/07/12 02:03:02;;;;;;;0.00;0.00;;;;;;;20.37;100.00;95955.97;5071347;28;20036;-78
2023/07/12 02:05:48;;;;;;;0.00;0.00;;;;;;;20.28;100.00;95948.66;5057734;28;20036;-78
2023/07/12 02:08:38;;;;;;;0.00;0.00;;;;;;;20.23;100.00;95948.84;5056251;28;20036;-78
2023/07/12 02:11:24;;;;;;;0.00;0.00;;;;;;;20.29;100.00;95942.09;5056445;28;20711;-78
2023/07/12 02:14:10;;;;;;;0.00;0.00;;;;;;;20.24;100.00;95939.56;5055813;28;20040;-78
2023/07/12 02:16:56;;;;;;;0.00;0.00;;;;;;;20.21;100.00;95942.09;5056094;28;20043;-78
2023/07/12 02:19:42;;;;;;;0.03;0.00;;;;;;;20.18;100.00;95943.56;5043588;28;20358;-78
2023/07/12 02:22:30;;;;;;;0.10;0.10;;;;;;;20.11;100.00;95948.69;5040769;28;20040;-78
2023/07/12 02:25:18;;;;;;;0.10;0.10;;;;;;;20.14;100.00;95958.09;5070742;28;20559;-78
2023/07/12 02:28:04;;;;;;;0.10;0.10;;;;;;;20.10;100.00;95952.50;5067470;28;20645;-78
2023/07/12 02:30:51;;;;;;;0.00;0.00;;;;;;;20.14;100.00;95956.16;5056755;28;20075;-77
2023/07/12 02:33:37;;;;;;;0.05;0.05;;;;;;;20.05;100.00;95952.66;5056749;28;20128;-78
2023/07/12 02:36:23;;;;;;;0.00;0.00;;;;;;;20.04;100.00;95946.44;5054866;28;20043;-78
2023/07/12 02:39:09;;;;;;;0.00;0.00;;;;;;;20.08;100.00;95949.34;5070048;28;20237;-79
2023/07/12 02:41:55;;;;;;;0.00;0.00;;;;;;;20.06;100.00;95943.41;5071794;28;20052;-79
2023/07/12 02:44:41;;;;;;;0.03;0.03;;;;;;;19.69;100.00;95923.97;5069926;28;20042;-79
2023/07/12 02:47:27;;;;;;;0.00;0.00;;;;;;;19.61;100.00;95915.78;5056056;28;20033;-78
2023/07/12 02:50:13;;;;;;;0.05;0.05;;;;;;;19.58;100.00;95930.81;5069121;28;20044;-78
2023/07/12 02:52:59;;;;;;;0.00;0.00;;;;;;;19.58;100.00;95911.81;5070497;28;20032;-79
2023/07/12 02:55:51;;;;;;;0.00;0.00;;;;;;;19.61;100.00;95911.19;5070213;28;20047;-78
2023/07/12 02:58:37;;;;;;;0.00;0.00;;;;;;;19.71;100.00;95912.78;5069373;28;20128;-79
2023/07/12 03:01:23;;;;;;;0.00;0.00;;;;;;;19.72;100.00;95904.31;5069146;28;20420;-78
2023/07/12 03:04:09;;;;;;;0.00;0.00;;;;;;;19.70;100.00;95909.25;5066740;28;20062;-78
2023/07/12 03:06:54;;;;;;;0.00;0.00;;;;;;;19.71;100.00;95910.84;5070870;28;20516;-79
2023/07/12 03:09:40;;;;;;;0.05;0.05;;;;;;;19.41;100.00;95909.84;5068416;28;20044;-79
2023/07/12 03:12:27;;;;;;;0.10;0.10;;;;;;;19.10;100.00;95901.84;5069247;28;20039;-79
2023/07/12 03:15:13;;;;;;;0.00;0.00;;;;;;;19.24;100.00;95917.97;5069869;28;20609;-79
2023/07/12 03:17:59;;;;;;;0.00;0.00;;;;;;;19.51;100.00;95926.94;5066876;28;20518;-78
2023/07/12 03:20:45;;;;;;;0.05;0.05;;;;;;;19.71;100.00;95934.50;5070329;28;20497;-79
2023/07/12 03:23:32;;;;;;;0.10;0.10;;;;;;;19.78;100.00;95939.44;5050571;28;20504;-79
2023/07/12 03:26:18;;;;;;;0.00;0.00;;;;;;;19.76;100.00;95956.81;5069745;28;20437;-79
2023/07/12 03:29:05;;;;;;;0.00;0.00;;;;;;;19.70;100.00;95941.03;5055365;28;20036;-79
2023/07/12 03:31:51;;;;;;;0.00;0.00;;;;;;;19.70;100.00;95958.13;5068611;28;20474;-79
2023/07/12 03:34:36;;;;;;;0.10;0.10;;;;;;;19.68;100.00;95954.91;5042075;28;20445;-78
2023/07/12 03:37:22;;;;;;;0.10;0.10;;;;;;;19.73;100.00;95967.53;5052127;28;20566;-79
2023/07/12 03:40:09;;;;;;;0.00;0.00;;;;;;;19.70;100.00;95977.13;5054095;28;20546;-79
2023/07/12 03:42:55;;;;;;;0.05;0.05;;;;;;;19.57;100.00;96002.47;5069694;28;20548;-79
2023/07/12 03:45:42;;;;;;;0.10;0.10;;;;;;;19.40;100.00;95988.84;5051687;28;20044;-80
2023/07/12 03:48:29;;;;;;;0.10;0.10;;;;;;;19.19;100.00;95980.50;5068205;28;20549;-80
2023/07/12 03:51:17;;;;;;;0.00;0.00;;;;;;;19.13;100.00;95977.13;5070026;28;20050;-79
2023/07/12 03:54:04;;;;;;;0.00;0.00;;;;;;;19.06;100.00;96001.16;5053291;28;20150;-80
2023/07/12 03:56:50;;;;;;;0.00;0.00;;;;;;;18.93;100.00;96051.69;5054475;28;20081;-80
2023/07/12 03:59:36;;;;;;;0.00;0.00;;;;;;;18.76;100.00;96037.25;5039790;28;20035;-80
2023/07/12 04:02:22;;;;;;;0.00;0.00;;;;;;;18.66;100.00;96059.97;5040074;28;20100;-79
2023/07/12 04:05:08;;;;;;;0.00;0.00;;;;;;;18.48;100.00;96050.91;5042429;28;20126;-78
2023/07/12 04:07:56;;;;;;;0.10;0.10;;;;;;;18.30;100.00;96038.38;5056194;28;20039;-79
2023/07/12 04:10:42;;;;;;;0.10;0.10;;;;;;;18.18;100.00;96049.72;5050093;28;20404;-79
2023/07/12 04:13:28;;;;;;;0.00;0.00;;;;;;;18.00;100.00;96064.22;5053949;28;20467;-79
2023/07/12 04:16:15;;;;;;;0.00;0.00;;;;;;;18.06;100.00;96073.84;5055155;28;20526;-80
2023/07/12 04:19:01;;;;;;;0.00;0.00;;;;;;;17.89;100.00;96058.22;5056196;28;20300;-79
2023/07/12 04:21:47;;;;;;;0.10;0.10;;;;;;;17.74;100.00;96058.56;5056332;28;20050;-79
2023/07/12 04:24:33;;;;;;;0.00;0.00;;;;;;;17.84;100.00;96062.97;5058020;28;20481;-79
2023/07/12 04:27:19;;;;;;;0.00;0.00;;;;;;;17.58;100.00;96058.06;5056934;28;20032;-79
2023/07/12 04:30:07;;;;;;;0.10;0.10;;;;;;;17.53;100.00;96071.69;5057943;28;20133;-79
2023/07/12 04:32:53;;;;;;;0.10;0.10;;;;;;;17.62;100.00;96077.19;5056443;28;20153;-79
2023/07/12 04:35:39;;;;;;;0.10;0.10;;;;;;;17.73;100.00;96097.56;5070480;28;20040;-80
2023/07/12 04:38:27;;;;;;;0.00;0.00;;;;;;;17.96;100.00;96093.81;5053389;28;20697;-80
2023/07/12 04:41:13;;;;;;;0.00;0.00;;;;;;;18.10;100.00;96097.28;5041305;28;20119;-80
2023/07/12 04:44:01;;;;;;;0.10;0.10;;;;;;;17.95;100.00;96094.09;5042260;28;20040;-79
2023/07/12 04:46:47;;;;;;;0.10;0.10;;;;;;;17.97;100.00;96100.00;5071168;28;20623;-79
2023/07/12 04:49:33;;;;;;;0.10;0.10;;;;;;;17.92;100.00;96097.44;5070925;28;20162;-80
2023/07/12 04:52:19;;;;;;;0.00;0.00;;;;;;;17.86;100.00;96101.34;5072676;28;20043;-80
2023/07/12 04:55:20;;;;;;;0.00;0.00;;;;;;;17.40;100.00;96096.84;5043309;28;20127;-79
2023/07/12 04:58:29;;;;;;;;;;;;;;;17.46;100.00;96109.97;5074312;28;20115;-80
2023/07/12 05:01:15;;;;;;;0.00;0.00;;;;;;;17.60;100.00;96090.22;5057651;28;19915;-79
2023/07/12 05:04:01;;;;;;;0.00;0.00;;;;;;;17.63;100.00;96101.25;5075038;28;20157;-79
2023/07/12 05:06:47;;;;;;;0.00;0.00;;;;;;;17.38;100.00;96116.06;5060911;28;20036;-80
2023/07/12 05:09:33;;;;;;;0.00;0.00;;;;;;;17.57;100.00;96107.84;5058947;28;20135;-80
2023/07/12 05:12:19;;;;;;;0.00;0.00;;;;;;;17.61;100.00;96098.03;5045557;28;20533;-80
2023/07/12 05:15:06;;;;;;;0.00;0.00;;;;;;;17.73;100.00;96116.50;5059660;28;20040;-80
2023/07/12 05:17:52;;;;;;;0.10;0.10;;;;;;;17.93;100.00;96115.28;5073786;28;20490;-80
2023/07/12 05:20:38;;;;;;;0.00;0.00;;;;;;;18.20;100.00;96117.91;5058190;28;20028;-80
2023/07/12 05:23:24;;;;;;;0.10;0.10;;;;;;;18.13;100.00;96116.72;5043247;28;20101;-80
2023/07/12 05:26:10;;;;;;;0.10;0.10;;;;;;;18.47;100.00;96127.88;5057955;28;20164;-79
2023/07/12 05:28:56;;;;;;;0.00;0.00;;;;;;;18.39;100.00;96131.31;5042367;28;20119;-79
2023/07/12 05:31:42;;;;;;;0.10;0.10;;;;;;;18.21;100.00;96132.25;5045443;28;20043;-80
2023/07/12 05:34:28;;;;;;;0.00;0.00;;;;;;;18.18;100.00;96132.88;5055782;28;20040;-79
2023/07/12 05:37:14;;;;;;;0.10;0.10;;;;;;;18.03;100.00;96134.00;5056042;28;20047;-79
2023/07/12 05:40:00;;;;;;;0.10;0.10;;;;;;;18.15;100.00;96133.50;5046021;28;20464;-80
2023/07/12 05:42:46;;;;;;;0.10;0.10;;;;;;;18.22;100.00;96158.25;5051211;28;20122;-80
2023/07/12 05:45:32;;;;;;;0.03;0.03;;;;;;;18.13;100.00;96143.78;5043851;28;20036;-79
2023/07/12 05:48:19;;;;;;;0.10;0.10;;;;;;;18.08;100.00;96142.81;5041803;28;20036;-81
2023/07/12 05:51:07;;;;;;;0.10;0.10;;;;;;;17.97;100.00;96141.41;5058767;28;20070;-79
2023/07/12 05:53:53;;;;;;;0.20;0.20;;;;;;;17.94;100.00;96149.34;5045733;28;20043;-80
2023/07/12 05:56:39;;;;;;;0.10;0.10;;;;;;;17.94;100.00;96146.66;5044157;28;20068;-80
2023/07/12 05:59:25;;;;;;;0.10;0.10;;;;;;;18.07;100.00;96160.16;5058631;28;20047;-80
2023/07/12 06:02:13;;;;;;;0.10;0.10;;;;;;;18.23;100.00;96149.00;5042188;28;20036;-80
2023/07/12 06:04:59;;;;;;;0.10;0.10;;;;;;;18.38;100.00;96149.47;5055459;28;20130;-80
2023/07/12 06:07:46;;;;;;;0.10;0.10;;;;;;;18.33;100.00;96149.56;5051274;28;20032;-79
2023/07/12 06:10:32;;;;;;;0.10;0.10;;;;;;;18.40;100.00;96151.06;5057717;28;20078;-80
2023/07/12 06:13:19;;;;;;;0.10;0.10;;;;;;;18.45;100.00;96146.34;5056373;28;20043;-80
2023/07/12 06:16:05;;;;;;;0.08;0.08;;;;;;;18.75;100.00;96168.44;5055794;28;20067;-80
2023/07/12 06:18:51;;;;;;;0.10;0.10;;;;;;;18.78;100.00;96146.16;5055373;28;20432;-79
2023/07/12 06:21:37;;;;;;;0.10;0.10;;;;;;;19.01;100.00;96158.59;5040272;28;20046;-81
2023/07/12 06:24:23;;;;;;;0.10;0.10;;;;;;;19.01;100.00;96149.66;5070632;28;20516;-79
2023/07/12 06:27:10;;;;;;;0.10;0.10;;;;;;;19.27;100.00;96155.22;5055015;28;20571;-80
2023/07/12 06:29:55;;;;;;;0.00;0.00;;;;;;;19.52;100.00;96148.31;5045631;28;20056;-80
2023/07/12 06:32:41;;;;;;;0.10;0.10;;;;;;;19.38;100.00;96162.00;5037952;28;20116;-80
2023/07/12 06:35:30;;;;;;;0.08;0.08;;;;;;;19.39;100.00;96161.69;5043119;28;20040;-80
2023/07/12 06:38:18;;;;;;;0.10;0.10;;;;;;;19.55;100.00;96162.06;5047136;28;20156;-80
2023/07/12 06:41:06;;;;;;;0.10;0.10;;;;;;;19.72;100.00;96159.44;5052711;28;20044;-80
2023/07/12 06:43:52;;;;;;;0.10;0.10;;;;;;;19.82;100.00;96160.28;5042375;28;20043;-80
2023/07/12 06:46:38;;;;;;;0.10;0.10;;;;;;;19.61;100.00;96160.84;5042827;28;20121;-80
2023/07/12 06:49:24;;;;;;;0.10;0.10;;;;;;;19.53;100.00;96169.69;5043544;28;20118;-80
2023/07/12 06:52:10;;;;;;;0.10;0.10;;;;;;;19.48;100.00;96175.28;5041906;28;20039;-79
2023/07/12 06:54:56;;;;;;;0.10;0.10;;;;;;;19.65;100.00;96180.00;5042911;28;20080;-80
2023/07/12 06:57:42;;;;;;;0.10;0.10;;;;;;;19.88;100.00;96186.97;5043678;28;20434;-79
2023/07/12 07:00:28;;;;;;;0.00;0.00;;;;;;;19.87;100.00;96190.00;5039794;28;20036;-80
2023/07/12 07:03:16;;;;;;;0.10;0.10;;;;;;;20.04;100.00;96190.06;5044022;28;20067;-80
2023/07/12 07:06:02;;;;;;;0.10;0.10;;;;;;;19.88;100.00;96188.88;5040781;28;20406;-79
2023/07/12 07:08:48;;;;;;;0.03;0.03;;;;;;;20.07;100.00;96183.97;5054205;28;20069;-79
2023/07/12 07:11:34;;;;;;;0.10;0.10;;;;;;;20.42;100.00;96186.78;5071836;28;20552;-79
2023/07/12 07:14:20;;;;;;;0.10;0.10;;;;;;;20.49;100.00;96187.94;5042932;28;20128;-80
2023/07/12 07:17:08;;;;;;;0.13;0.13;;;;;;;20.39;100.00;96193.66;5035786;28;20554;-80
2023/07/12 07:19:54;;;;;;;0.10;0.10;;;;;;;20.43;100.00;96204.69;5042701;28;20525;-79
2023/07/12 07:22:40;;;;;;;0.00;0.00;;;;;;;20.25;100.00;96201.94;5068070;28;20117;-80
2023/07/12 07:25:28;;;;;;;0.10;0.10;;;;;;;20.18;100.00;96211.66;5050833;28;20044;-80
2023/07/12 07:28:14;;;;;;;0.10;0.10;;;;;;;19.91;100.00;96202.63;5036326;28;20451;-79
2023/07/12 07:31:00;;;;;;;0.10;0.10;;;;;;;19.75;100.00;96198.72;5056261;28;20063;-80
2023/07/12 07:33:47;;;;;;;0.10;0.10;;;;;;;19.88;100.00;96191.59;5067989;28;20374;-80
2023/07/12 07:36:33;;;;;;;0.00;0.00;;;;;;;19.88;100.00;96194.31;5071388;28;20036;-80
2023/07/12 07:39:19;;;;;;;0.10;0.10;;;;;;;19.88;100.00;96213.31;5062995;28;20108;-80
2023/07/12 07:42:05;;;;;;;0.10;0.10;;;;;;;20.21;100.00;96214.53;5058835;28;20052;-80
2023/07/12 07:44:51;;;;;;;0.00;0.00;;;;;;;20.39;100.00;96209.13;5050312;28;20798;-79
2023/07/12 07:47:37;;;;;;;0.10;0.10;;;;;;;20.45;100.00;96208.69;5042459;28;20028;-79
2023/07/12 07:50:23;;;;;;;0.10;0.10;;;;;;;20.62;100.00;96199.75;5039088;28;20047;-78
2023/07/12 07:53:11;;;;;;;0.05;0.05;;;;;;;20.78;100.00;96203.63;5055523;28;20459;-81
2023/07/12 07:55:57;;;;;;;0.10;0.10;;;;;;;20.20;100.00;96196.63;5044770;28;20430;-80
2023/07/12 07:58:43;;;;;;;0.00;0.00;;;;;;;19.79;100.00;96210.56;5046937;28;20467;-80
2023/07/12 08:01:29;;;;;;;0.10;0.10;;;;;;;19.64;100.00;96187.34;5054544;28;20090;-79
2023/07/12 08:04:15;;;;;;;0.10;0.10;;;;;;;20.07;100.00;96194.03;5053671;28;20522;-79
2023/07/12 08:07:02;;;;;;;0.10;0.10;;;;;;;20.57;100.00;96191.78;5053975;28;20805;-79
2023/07/12 08:09:51;;;;;;;0.10;0.10;;;;;;;20.37;100.00;96189.63;5036786;28;20608;-80
2023/07/12 08:12:37;;;;;;;0.10;0.10;;;;;;;20.24;100.00;96194.09;5048914;28;20352;-80
2023/07/12 08:15:24;;;;;;;0.10;0.10;;;;;;;20.19;100.00;96181.47;5040984;28;20145;-80
2023/07/12 08:18:11;;;;;;;0.10;0.10;;;;;;;20.00;100.00;96199.97;5032892;28;20069;-80
2023/07/12 08:20:57;;;;;;;0.10;0.10;;;;;;;20.03;100.00;96183.03;5052860;28;20040;-80
2023/07/12 08:23:43;;;;;;;0.00;0.00;;;;;;;20.09;100.00;96192.63;5054703;28;20047;-79
2023/07/12 08:26:29;;;;;;;0.10;0.10;;;;;;;20.43;100.00;96202.75;5043531;28;20037;-80
2023/07/12 08:29:15;;;;;;;0.10;0.10;;;;;;;20.54;100.00;96201.38;5058591;28;20117;-79
2023/07/12 08:32:01;;;;;;;0.10;0.10;;;;;;;;;;5010298;28;20146;-79
2023/07/12 08:34:47;;;;;;;0.10;0.10;;;;;;;21.70;100.00;96211.50;5044666;28;20121;-80
2023/07/12 08:37:33;;;;;;;0.10;0.10;;;;;;;21.76;100.00;96231.19;5038234;28;20044;-80
2023/07/12 08:40:19;;;;;;;0.10;0.10;;;;;;;21.41;100.00;96232.09;4989896;28;20222;-80
2023/07/12 08:43:16;;;;;;;0.10;0.10;;;;;;;21.45;100.00;96231.44;5029310;28;20056;-79
2023/07/12 08:46:16;;;;;;;0.10;0.10;;;;;;;21.65;100.00;96230.75;5034248;28;20036;-80
2023/07/12 08:49:02;;;;;;;0.10;0.10;;;;;;;21.61;100.00;96225.16;5026444;28;20159;-80
2023/07/12 08:51:49;;;;;;;0.10;0.10;;;;;;;21.61;100.00;96230.59;5029235;28;20134;-79
2023/07/12 08:54:35;;;;;;;0.10;0.10;;;;;;;22.19;100.00;96234.56;5019267;28;20046;-79
2023/07/12 08:57:23;;;;;;;0.10;0.10;;;;;;;22.93;100.00;96222.25;5019416;28;20044;-80
2023/07/12 09:00:19;;;;;;;0.03;0.03;;;;;;;22.43;100.00;96225.00;5030290;28;20089;-80
2023/07/12 09:03:05;;;;;;;0.10;0.10;;;;;;;22.38;100.00;96219.72;5018033;28;20032;-79
2023/07/12 09:05:51;;;;;;;0.10;0.10;;;;;;;22.78;100.00;96222.81;5027799;28;20044;-81
2023/07/12 09:08:40;;;;;;;0.10;0.10;;;;;;;22.65;100.00;96224.69;5044450;28;20636;-79
2023/07/12 09:11:29;;;;;;;0.03;0.03;;;;;;;23.01;100.00;96226.84;5056435;28;20063;-80
2023/07/12 09:14:24;;;;;;;0.00;0.00;;;;;;;22.91;100.00;96226.44;5049311;28;20477;-80
2023/07/12 09:17:23;;;;;;;0.00;0.00;;;;;;;23.00;100.00;96214.31;5055374;28;20060;-80
2023/07/12 09:20:28;;;;;;;0.00;0.00;;;;;;;22.47;100.00;96234.88;5067446;28;20530;-79
2023/07/12 09:23:15;;;;;;;0.10;0.10;;;;;;;22.45;100.00;96231.69;5040453;28;20356;-79
2023/07/12 09:26:11;;;;;;;0.10;0.10;;;;;;;23.21;100.00;96236.16;5057470;28;20370;-79
2023/07/12 09:29:04;;;;;;;0.10;0.10;;;;;;;23.51;100.00;96231.38;5038708;28;20103;-80
2023/07/12 09:31:51;;;;;;;0.08;0.08;;;;;;;23.27;100.00;96229.34;5013681;28;20440;-79
2023/07/12 09:34:39;;;;;;;0.10;0.10;;;;;;;23.14;100.00;96241.34;5040719;28;20060;-80
2023/07/12 09:37:25;;;;;;;0.08;0.08;;;;;;;23.07;100.00;96232.91;5052455;28;20032;-79
2023/07/12 09:40:17;;;;;;;0.10;0.10;;;;;;;23.23;100.00;96238.53;5054883;28;20086;-80
2023/07/12 09:43:05;;;;;;;0.10;0.10;;;;;;;23.25;100.00;96225.34;5048543;28;20044;-80
2023/07/12 09:46:03;;;;;;;0.00;0.00;;;;;;;23.37;100.00;96233.59;5039422;28;20627;-80
2023/07/12 09:49:06;;;;;;;0.00;0.00;;;;;;;23.61;100.00;96232.91;5055796;28;20111;-82
2023/07/12 09:52:02;;;;;;;0.10;0.10;;;;;;;23.92;100.00;96237.84;5050400;28;20177;-82
2023/07/12 09:55:08;;;;;;;0.10;0.10;;;;;;;23.40;100.00;96251.22;5054660;28;20039;-79
2023/07/12 09:58:01;;;;;;;0.08;0.08;;;;;;;22.64;100.00;96246.81;5057350;28;20597;-79
2023/07/12 10:01:00;;;;;;;0.10;0.10;;;;;;;22.73;100.00;96250.31;5049138;28;20810;-81
2023/07/12 10:03:54;;;;;;;0.10;0.10;;;;;;;23.10;100.00;96247.78;5042854;28;20436;-79
2023/07/12 10:06:46;;;;;;;0.10;0.10;;;;;;;23.00;100.00;96255.25;5056911;28;20416;-80
2023/07/12 10:09:36;;;;;;;0.10;0.10;;;;;;;23.15;100.00;96228.50;5052477;28;20039;-80
2023/07/12 10:12:49;;;;;;;0.10;0.10;;;;;;;23.93;98.16;96236.72;5058485;28;20036;-79
2023/07/12 10:15:39;;;;;;;0.00;0.00;;;;;;;24.13;96.59;96241.28;5037005;28;20175;-79
2023/07/12 10:18:28;;;;;;;0.10;0.10;;;;;;;24.23;96.91;96226.38;5041955;28;20123;-79
2023/07/12 10:21:25;;;;;;;0.10;0.10;;;;;;;24.39;94.48;96240.19;5056304;28;20066;-80
2023/07/12 10:24:14;;;;;;;0.10;0.10;;;;;;;24.35;95.96;96231.84;5035593;28;20028;-79
2023/07/12 10:27:06;;;;;;;0.10;0.10;;;;;;;23.76;96.87;96240.44;5038179;28;20351;-80
2023/07/12 10:29:57;;;;;;;0.20;0.20;;;;;;;24.58;94.32;96239.59;5058962;28;20342;-80
2023/07/12 10:32:56;;;;;;;0.10;0.10;;;;;;;24.80;92.74;96238.31;5028706;28;20607;-80
2023/07/12 10:36:15;;;;;;;0.00;0.00;;;;;;;25.09;89.10;96245.44;5047820;28;20074;-80
2023/07/12 10:39:04;;;;;;;0.10;0.10;;;;;;;25.11;91.21;96227.53;5042106;28;20075;-80
2023/07/12 10:42:27;;;;;;;0.10;0.10;;;;;;;25.67;86.70;96232.97;5061625;28;20103;-80
2023/07/12 10:45:20;;;;;;;0.10;0.10;;;;;;;25.51;87.47;96246.63;5059241;28;20458;-80
2023/07/12 10:48:09;;;;;;;0.10;0.10;;;;;;;25.20;90.90;96241.06;5055447;28;20252;-81
2023/07/12 10:51:20;;;;;;;0.10;0.10;;;;;;;26.07;87.79;96249.34;5052719;28;20409;-80
2023/07/12 10:54:29;;;;;;;0.10;0.10;;;;;;;25.89;88.25;96248.06;5050077;28;20115;-80
2023/07/12 10:57:20;;;;;;;0.10;0.10;;;;;;;25.74;89.01;96235.13;5038549;28;20051;-80
2023/07/12 11:00:12;;;;;;;0.10;0.10;;;;;;;25.52;87.73;96236.47;5037669;28;20043;-80
2023/07/12 11:03:27;;;;;;;0.10;0.10;;;;;;;25.06;86.43;96236.00;5066181;28;20776;-79
2023/07/12 11:06:25;;;;;;;0.10;0.10;;;;;;;25.93;85.91;96239.94;5028674;28;20054;-80
2023/07/12 11:09:11;;;;;;;0.10;0.10;;;;;;;26.39;81.44;96238.38;5033986;28;20477;-80
2023/07/12 11:12:05;;;;;;;0.10;0.10;;;;;;;27.02;83.97;96232.75;5041136;28;20426;-80
2023/07/12 11:14:52;;;;;;;0.00;0.00;;;;;;;25.43;91.48;96222.16;5042868;28;20069;-80
2023/07/12 11:18:03;;;;;;;0.17;0.17;;;;;;;26.14;86.06;96229.50;5048799;28;20398;-81
2023/07/12 11:21:07;;;;;;;0.08;0.08;;;;;;;25.74;87.94;96229.66;5053130;28;20132;-80
2023/07/12 11:23:53;;;;;;;0.10;0.10;;;;;;;25.75;90.36;96237.53;5048016;28;20040;-80
2023/07/12 11:26:53;;;;;;;0.00;0.00;;;;;;;25.01;92.30;96223.31;5055541;28;20035;-80
2023/07/12 11:29:46;;;;;;;0.13;0.13;;;;;;;28.11;81.01;96226.22;5035448;28;20074;-80
2023/07/12 11:32:40;;;;;;;0.08;0.08;;;;;;;29.78;67.29;96230.50;5051856;28;20324;-81
2023/07/12 11:35:45;;;;;;;0.05;0.05;;;;;;;29.65;62.67;96229.97;5047642;28;20605;-80
2023/07/12 11:38:33;;;;;;;0.10;0.10;;;;;;;28.48;72.54;96237.44;5042089;28;20047;-80
2023/07/12 11:41:26;;;;;;;0.00;0.00;;;;;;;27.57;74.42;96241.72;5040061;28;20541;-80
2023/07/12 11:44:17;;;;;;;0.00;0.00;;;;;;;27.19;79.89;96245.28;5053096;28;20660;-80
2023/07/12 11:47:04;;;;;;;0.10;0.10;;;;;;;31.15;56.82;96229.22;5056498;28;20036;-80
2023/07/12 11:49:55;;;;;;;0.20;0.20;;;;;;;35.23;36.45;96238.75;5055122;28;20051;-81
2023/07/12 11:52:41;;;;;;;0.10;0.10;;;;;;;35.43;33.68;96217.50;5054587;28;20127;-80
2023/07/12 11:55:28;;;;;;;0.10;0.10;;;;;;;36.44;31.61;96216.88;5039319;28;20064;-80
2023/07/12 11:58:16;;;;;;;0.10;0.10;;;;;;;34.64;35.54;96225.06;5054333;28;20548;-81
2023/07/12 12:01:02;;;;;;;0.10;0.10;;;;;;;33.64;35.81;96224.94;5053784;28;20437;-81
2023/07/12 12:03:50;;;;;;;0.00;0.00;;;;;;;31.52;45.16;96234.56;5053309;28;20039;-80
2023/07/12 12:06:36;;;;;;;0.10;0.10;;;;;;;31.26;47.41;96238.38;5032548;28;20097;-80
2023/07/12 12:09:29;;;;;;;0.20;0.20;;;;;;;36.36;29.15;96220.94;5052985;28;20536;-80
2023/07/12 12:12:20;;;;;;;0.10;0.10;;;;;;;38.33;25.79;96221.44;5054541;28;20043;-80
2023/07/12 12:15:18;;;;;;;0.00;0.00;;;;;;;34.39;30.75;96211.34;5052027;28;20043;-80
2023/07/12 12:18:13;;;;;;;0.00;0.00;;;;;;;35.71;29.83;96221.09;5068994;28;20032;-80
2023/07/12 12:20:59;;;;;;;0.10;0.10;;;;;;;31.22;43.54;96220.22;5053956;28;20032;-80
2023/07/12 12:23:57;;;;;;;0.00;0.00;;;;;;;29.83;51.39;96233.72;5067839;28;20032;-79
2023/07/12 12:42:52;;;;;;;0.03;0.03;;;;;;;39.13;22.90;96210.59;4963067;28;20046;-80
2023/07/12 12:45:37;;;;;;;0.10;0.10;;;;;;;41.52;22.11;96206.53;4963266;28;20089;-80
2023/07/12 12:48:23;;;;;;;0.00;0.00;;;;;;;38.38;23.54;96210.53;4961427;28;20109;-81
2023/07/12 12:51:11;;;;;;;0.00;0.00;;;;;;;33.95;29.97;96207.34;4963409;28;20039;-81
2023/07/12 12:53:57;;;;;;;0.10;0.10;;;;;;;35.40;29.66;96211.97;4962036;28;20440;-81
2023/07/12 12:56:45;;;;;;;0.10;0.10;;;;;;;39.73;22.96;96205.31;4961929;28;20038;-81
2023/07/12 12:59:31;;;;;;;0.00;0.00;;;;;;;35.57;28.31;96205.41;4962935;28;20555;-81
2023/07/12 13:02:19;;;;;;;0.00;0.00;;;;;;;32.37;34.38;96203.50;4947739;28;20061;-81
2023/07/12 13:05:05;;;;;;;0.10;0.10;;;;;;;36.02;27.90;96198.81;4945030;28;20135;-81
2023/07/12 13:07:52;;;;;;;0.10;0.10;;;;;;;35.87;28.42;96212.91;4946488;28;20456;-80
2023/07/12 13:10:38;;;;;;;0.00;0.00;;;;;;;34.87;28.61;96193.88;4947058;28;20048;-81
2023/07/12 13:13:24;;;;;;;0.00;0.00;;;;;;;32.83;31.70;96212.91;4945675;28;20046;-81
2023/07/12 13:16:28;;;;;;;0.10;0.10;;;;;;;34.32;28.13;96205.84;4945874;28;20047;-81
2023/07/12 13:19:14;;;;;;;0.10;0.10;;;;;;;34.21;29.87;96222.63;4946257;28;20061;-80
2023/07/12 13:22:00;;;;;;;0.10;0.10;;;;;;;37.74;25.04;96209.19;4948403;28;20057;-81
2023/07/12 13:24:45;;;;;;;0.10;0.10;;;;;;;38.79;23.43;96211.91;4945296;28;20071;-81